Time;durP1;ratioP1;P1;durP2;ratioP2;P2;SDS_P1;SDS_P2;PMS_P1;PMS_P2;Temp;Humidity;BMP_temperature;BMP_pressure;BME280_temperature;BME280_humidity;BME280_pressure;Samples;Min_cycle;Max_cycle;Signal;HPM_P1;HPM_P2
2022/10/02 00:01:24;;;;;;;1.30;1.00;;;17.50;52.90;;;;;;5013352;28;20420;-70
2022/10/02 00:03:50;;;;;;;1.30;1.07;;;17.60;53.20;;;;;;5013155;28;20907;-70
2022/10/02 00:06:24;;;;;;;1.30;1.20;;;17.60;53.10;;;;;;5013624;28;20748;-70
2022/10/02 00:08:55;;;;;;;1.30;1.10;;;17.60;53.20;;;;;;5012126;28;20490;-70
2022/10/02 00:11:28;;;;;;;1.27;1.10;;;17.70;52.60;;;;;;5013164;28;20507;-70
2022/10/02 00:14:01;;;;;;;1.30;1.10;;;17.60;52.80;;;;;;5012978;28;20496;-69
2022/10/02 00:16:33;;;;;;;1.30;1.10;;;17.50;53.20;;;;;;5013257;28;20430;-70
2022/10/02 00:18:59;;;;;;;1.30;1.10;;;17.40;52.80;;;;;;5013223;28;20447;-70
2022/10/02 00:21:54;;;;;;;1.30;1.10;;;17.40;52.80;;;;;;5012977;28;20408;-70
2022/10/02 00:24:42;;;;;;;1.30;1.03;;;17.30;53.20;;;;;;5011448;28;20609;-70
2022/10/02 00:27:20;;;;;;;1.30;1.10;;;17.20;53.00;;;;;;5012281;28;20424;-70
2022/10/02 00:29:51;;;;;;;1.30;1.10;;;17.10;53.80;;;;;;5012619;28;20416;-70
2022/10/02 00:32:40;;;;;;;1.30;1.10;;;17.00;52.30;;;;;;5010957;28;20424;-70
2022/10/02 00:35:36;;;;;;;1.30;1.20;;;17.10;53.30;;;;;;5012906;28;20408;-70
2022/10/02 00:38:05;;;;;;;1.30;1.10;;;17.10;54.30;;;;;;5012583;28;20474;-70
2022/10/02 00:41:02;;;;;;;1.30;1.00;;;17.20;54.20;;;;;;5011701;28;20432;-70
2022/10/02 00:44:13;;;;;;;1.30;1.07;;;17.20;53.80;;;;;;5010644;28;20812;-70
2022/10/02 00:46:52;;;;;;;1.30;1.10;;;17.20;52.60;;;;;;5012379;28;20804;-69
2022/10/02 00:49:36;;;;;;;1.30;1.00;;;17.40;52.90;;;;;;5012748;28;20404;-71
2022/10/02 00:52:16;;;;;;;1.30;1.10;;;17.40;53.50;;;;;;5012110;28;20419;-70
2022/10/02 00:54:57;;;;;;;1.30;1.10;;;17.50;52.90;;;;;;5012355;28;20423;-70
2022/10/02 00:57:47;;;;;;;1.30;1.10;;;17.50;52.90;;;;;;5012834;28;20443;-70
2022/10/02 01:00:15;;;;;;;1.30;1.10;;;17.60;52.70;;;;;;5012450;28;20919;-70
2022/10/02 01:02:56;;;;;;;1.30;1.13;;;17.50;52.50;;;;;;5010652;28;20419;-70
2022/10/02 01:05:22;;;;;;;1.30;1.10;;;17.50;52.80;;;;;;5009906;28;20435;-69
2022/10/02 01:07:51;;;;;;;1.30;1.20;;;17.60;51.40;;;;;;5012014;28;20446;-69
2022/10/02 01:10:18;;;;;;;1.30;1.00;;;17.60;52.30;;;;;;5012402;28;20996;-69
2022/10/02 01:12:44;;;;;;;1.23;1.03;;;17.50;52.20;;;;;;5010234;28;20428;-69
2022/10/02 01:15:23;;;;;;;1.30;1.10;;;16.90;52.00;;;;;;5011993;28;20478;-69
2022/10/02 01:17:52;;;;;;;1.30;1.00;;;16.70;52.50;;;;;;5012328;28;20464;-69
2022/10/02 01:20:25;;;;;;;1.30;1.10;;;16.60;54.20;;;;;;5012297;28;20828;-69
2022/10/02 01:23:02;;;;;;;1.30;1.20;;;16.10;55.70;;;;;;5009230;28;20947;-68
2022/10/02 01:25:28;;;;;;;1.30;1.10;;;16.60;54.70;;;;;;5010202;28;20958;-68
2022/10/02 01:27:54;;;;;;;1.30;1.10;;;16.70;53.00;;;;;;5011958;28;20436;-69
2022/10/02 01:30:20;;;;;;;1.30;1.10;;;17.20;50.60;;;;;;5012139;28;20413;-70
2022/10/02 01:32:52;;;;;;;1.30;1.20;;;17.30;50.20;;;;;;5011547;28;20597;-70
2022/10/02 01:35:21;;;;;;;1.30;1.10;;;17.20;48.70;;;;;;5011434;28;20412;-69
2022/10/02 01:37:49;;;;;;;1.30;1.10;;;17.30;49.80;;;;;;5011712;28;20464;-68
2022/10/02 01:40:28;;;;;;;1.30;1.20;;;17.40;49.30;;;;;;5011621;28;20420;-69
2022/10/02 01:42:57;;;;;;;1.30;1.10;;;17.20;49.50;;;;;;5011474;28;20415;-68
2022/10/02 01:45:48;;;;;;;1.30;1.00;;;17.40;48.70;;;;;;5011697;28;20416;-69
2022/10/02 01:48:35;;;;;;;1.30;1.10;;;17.20;49.10;;;;;;5011493;28;20452;-69
2022/10/02 01:51:38;;;;;;;1.30;1.10;;;17.20;49.20;;;;;;5011463;28;20454;-68
2022/10/02 01:54:29;;;;;;;1.30;1.10;;;17.40;49.10;;;;;;5011431;28;20422;-68
2022/10/02 01:57:20;;;;;;;1.30;1.10;;;16.90;51.00;;;;;;5011617;28;20531;-68
2022/10/02 02:00:00;;;;;;;1.30;1.20;;;16.30;53.30;;;;;;5011756;28;20771;-68
2022/10/02 02:02:38;;;;;;;1.30;1.10;;;16.60;52.10;;;;;;5011328;28;20872;-70
2022/10/02 02:05:07;;;;;;;1.30;1.10;;;16.90;50.10;;;;;;5011670;28;20392;-68
2022/10/02 02:07:44;;;;;;;1.30;1.10;;;17.00;49.50;;;;;;5011668;28;20428;-68
2022/10/02 02:10:32;;;;;;;1.30;1.17;;;17.30;49.10;;;;;;5011430;28;20409;-69
2022/10/02 02:13:15;;;;;;;1.30;1.10;;;17.30;48.80;;;;;;5011157;28;20388;-68
2022/10/02 02:15:53;;;;;;;1.30;1.10;;;17.60;47.70;;;;;;5011476;28;20892;-68
2022/10/02 02:18:43;;;;;;;1.30;1.10;;;17.80;46.60;;;;;;5011510;28;20518;-68
2022/10/02 02:21:17;;;;;;;1.30;1.10;;;17.70;46.30;;;;;;5011600;28;20432;-69
2022/10/02 02:23:44;;;;;;;1.30;1.20;;;17.80;45.90;;;;;;5011166;28;20832;-71
2022/10/02 02:26:11;;;;;;;1.30;1.17;;;17.70;46.00;;;;;;5011242;28;20440;-70
2022/10/02 02:28:42;;;;;;;1.30;1.10;;;18.00;46.50;;;;;;5011463;28;20750;-70
2022/10/02 02:31:12;;;;;;;1.30;1.20;;;18.20;44.70;;;;;;5010961;28;20858;-71
2022/10/02 02:33:50;;;;;;;1.30;1.10;;;18.20;45.10;;;;;;5011231;28;20398;-70
2022/10/02 02:36:20;;;;;;;1.30;1.20;;;18.20;46.30;;;;;;5010012;28;20454;-71
2022/10/02 02:38:57;;;;;;;1.30;1.10;;;18.10;44.50;;;;;;5011339;28;20503;-68
2022/10/02 02:41:30;;;;;;;1.30;1.10;;;18.00;45.90;;;;;;5011129;28;20435;-68
2022/10/02 02:43:58;;;;;;;1.30;1.20;;;18.10;47.40;;;;;;5010735;28;20952;-69
2022/10/02 02:46:26;;;;;;;1.30;1.00;;;18.30;44.20;;;;;;5011150;28;20412;-68
2022/10/02 02:48:59;;;;;;;1.30;1.10;;;18.20;46.70;;;;;;5011184;28;20422;-68
2022/10/02 02:51:36;;;;;;;1.27;1.10;;;17.90;45.30;;;;;;5010706;28;20781;-68
2022/10/02 02:54:27;;;;;;;1.30;1.17;;;17.70;46.40;;;;;;5010686;28;20439;-68
2022/10/02 02:56:56;;;;;;;1.30;1.10;;;17.70;46.90;;;;;;5011083;28;20463;-67
2022/10/02 02:59:25;;;;;;;1.30;1.20;;;17.90;44.90;;;;;;5011157;28;20451;-68
2022/10/02 03:01:51;;;;;;;1.30;1.20;;;17.80;45.80;;;;;;5010671;28;20888;-68
2022/10/02 03:04:16;;;;;;;1.30;1.20;;;17.90;44.20;;;;;;5011089;28;20468;-68
2022/10/02 03:06:45;;;;;;;1.30;1.10;;;17.60;45.00;;;;;;5012749;28;20185;-67
2022/10/02 03:09:17;;;;;;;1.30;1.13;;;17.50;46.80;;;;;;5014720;28;20590;-68
2022/10/02 03:11:45;;;;;;;1.30;1.10;;;18.00;44.50;;;;;;5013856;28;20511;-68
2022/10/02 03:14:58;;;;;;;1.30;1.10;;;18.20;43.00;;;;;;5014755;28;20413;-68
2022/10/02 03:18:19;;;;;;;1.30;1.10;;;18.10;43.20;;;;;;5014079;28;20822;-68
2022/10/02 03:21:05;;;;;;;1.30;1.10;;;18.00;46.00;;;;;;4972585;28;20950;-68
2022/10/02 03:23:56;;;;;;;1.30;1.10;;;17.90;44.30;;;;;;4972791;28;20418;-68
2022/10/02 03:26:44;;;;;;;1.30;1.17;;;18.10;43.60;;;;;;4972881;28;20414;-67
2022/10/02 03:29:19;;;;;;;1.30;1.10;;;18.10;42.70;;;;;;4972659;28;20869;-68
2022/10/02 03:31:46;;;;;;;1.30;1.20;;;17.80;43.30;;;;;;4972326;28;20953;-68
2022/10/02 03:34:12;;;;;;;1.30;1.10;;;17.70;43.70;;;;;;4972661;28;20795;-67
2022/10/02 03:36:38;;;;;;;1.30;1.20;;;17.60;44.80;;;;;;4972439;28;20445;-68
2022/10/02 03:39:05;;;;;;;1.30;1.10;;;17.60;45.40;;;;;;4972644;28;21027;-68
2022/10/02 03:41:31;;;;;;;1.30;1.10;;;17.80;43.60;;;;;;4972346;28;20208;-67
2022/10/02 03:43:56;;;;;;;1.30;1.20;;;18.10;43.00;;;;;;4972153;28;20421;-67
2022/10/02 03:46:22;;;;;;;1.30;1.10;;;18.10;42.70;;;;;;4972432;28;20184;-67
2022/10/02 03:48:48;;;;;;;1.30;1.10;;;18.00;42.80;;;;;;4972487;28;20276;-67
2022/10/02 03:51:13;;;;;;;1.30;1.10;;;18.20;42.20;;;;;;4971890;28;20681;-69
2022/10/02 03:53:41;;;;;;;1.30;1.13;;;17.60;44.40;;;;;;4979974;28;20190;-67
2022/10/02 03:56:08;;;;;;;1.30;1.13;;;17.70;43.10;;;;;;5013566;28;20177;-67
2022/10/02 03:58:39;;;;;;;1.30;1.10;;;17.80;43.20;;;;;;5013466;28;20558;-68
2022/10/02 04:01:15;;;;;;;1.30;1.10;;;17.60;44.40;;;;;;5013306;28;20880;-67
2022/10/02 04:03:52;;;;;;;1.30;1.20;;;17.90;43.80;;;;;;5013200;28;20439;-68
2022/10/02 04:06:35;;;;;;;1.30;1.10;;;18.10;43.00;;;;;;5013495;28;20423;-67
2022/10/02 04:09:40;;;;;;;1.30;1.10;;;18.30;41.90;;;;;;5013447;28;20404;-69
2022/10/02 04:12:22;;;;;;;1.30;1.10;;;18.50;42.10;;;;;;5010666;28;20927;-69
2022/10/02 04:15:15;;;;;;;1.30;1.10;;;18.10;41.90;;;;;;5013157;28;20405;-69
2022/10/02 04:17:46;;;;;;;1.30;1.20;;;17.90;42.20;;;;;;5012015;28;20439;-69
2022/10/02 04:20:45;;;;;;;1.30;1.17;;;17.90;42.80;;;;;;5013332;28;20407;-71
2022/10/02 04:23:22;;;;;;;1.30;1.10;;;17.60;43.90;;;;;;5013104;28;20413;-70
2022/10/02 04:25:56;;;;;;;1.30;1.20;;;17.60;43.50;;;;;;5012959;28;20408;-71
2022/10/02 04:28:31;;;;;;;1.30;1.20;;;17.90;42.80;;;;;;5013231;28;20518;-70
2022/10/02 04:30:56;;;;;;;1.30;1.20;;;17.80;42.60;;;;;;5012573;28;20409;-70
2022/10/02 04:33:24;;;;;;;1.30;1.20;;;17.70;43.10;;;;;;5012964;28;20897;-70
2022/10/02 04:36:15;;;;;;;1.30;1.20;;;17.40;43.80;;;;;;5012755;28;20541;-70
2022/10/02 04:38:58;;;;;;;1.30;1.10;;;17.90;42.70;;;;;;5012943;28;20468;-71
2022/10/02 04:41:46;;;;;;;1.30;1.10;;;17.80;42.60;;;;;;5012526;28;20407;-70
2022/10/02 04:44:30;;;;;;;1.30;1.10;;;18.10;41.40;;;;;;5012572;28;20388;-69
2022/10/02 04:47:31;;;;;;;1.30;1.20;;;18.10;41.90;;;;;;5012525;28;20498;-70
2022/10/02 04:50:17;;;;;;;1.30;1.10;;;18.20;41.10;;;;;;4971345;28;20432;-71
2022/10/02 04:52:51;;;;;;;1.30;1.10;;;18.50;40.20;;;;;;4970532;28;20816;-70
2022/10/02 04:55:35;;;;;;;1.30;1.10;;;18.50;40.80;;;;;;4971178;28;20401;-70
2022/10/02 04:58:27;;;;;;;1.30;1.10;;;18.40;40.60;;;;;;4971002;28;20473;-70
2022/10/02 05:01:04;;;;;;;1.30;1.20;;;18.40;40.20;;;;;;4970586;28;20446;-72
2022/10/02 05:04:16;;;;;;;1.30;1.10;;;18.20;41.60;;;;;;4971054;28;20395;-70
2022/10/02 05:06:47;;;;;;;1.30;1.10;;;18.40;40.20;;;;;;4940072;28;21011;-70
2022/10/02 05:09:28;;;;;;;1.30;1.17;;;18.60;41.10;;;;;;4970970;28;20400;-71
2022/10/02 05:12:02;;;;;;;1.30;1.00;;;18.60;42.80;;;;;;4970434;28;20981;-70
2022/10/02 05:14:38;;;;;;;1.30;1.10;;;18.60;42.30;;;;;;4970687;28;20445;-70
2022/10/02 05:17:26;;;;;;;1.30;1.10;;;18.60;40.40;;;;;;4970701;28;20441;-70
2022/10/02 05:20:05;;;;;;;1.30;1.10;;;18.60;39.90;;;;;;4970875;28;20504;-70
2022/10/02 05:22:42;;;;;;;1.30;1.20;;;18.60;39.50;;;;;;4970438;28;20411;-70
2022/10/02 05:25:29;;;;;;;1.30;1.10;;;18.50;40.20;;;;;;4984070;28;20427;-70
2022/10/02 05:28:21;;;;;;;1.30;1.00;;;18.60;41.70;;;;;;5011970;28;20534;-70
2022/10/02 05:31:16;;;;;;;1.30;1.10;;;18.70;41.40;;;;;;5011673;28;20769;-70
2022/10/02 05:34:04;;;;;;;1.30;1.10;;;18.50;44.10;;;;;;5009550;28;20429;-70
2022/10/02 05:36:58;;;;;;;1.30;1.00;;;18.50;43.70;;;;;;5011915;28;20487;-71
2022/10/02 05:39:39;;;;;;;1.30;1.10;;;18.40;44.30;;;;;;5011941;28;20590;-71
2022/10/02 05:42:05;;;;;;;1.30;1.10;;;18.60;43.70;;;;;;5011453;28;20420;-70
2022/10/02 05:44:38;;;;;;;1.30;1.13;;;18.60;45.50;;;;;;5011624;28;20413;-70
2022/10/02 05:47:16;;;;;;;1.30;1.10;;;18.60;45.10;;;;;;5011734;28;20240;-70
2022/10/02 05:49:57;;;;;;;1.30;1.13;;;18.50;44.00;;;;;;5011814;28;20388;-71
2022/10/02 05:52:31;;;;;;;1.30;1.00;;;18.50;44.60;;;;;;5011423;28;20432;-70
2022/10/02 05:55:28;;;;;;;1.30;1.10;;;18.50;45.60;;;;;;5011545;28;20923;-71
2022/10/02 05:58:02;;;;;;;1.30;1.10;;;18.50;46.10;;;;;;5011380;28;20499;-70
2022/10/02 06:00:30;;;;;;;1.30;1.10;;;18.40;45.90;;;;;;5011764;28;20416;-70
2022/10/02 06:03:08;;;;;;;1.30;1.10;;;18.50;44.80;;;;;;5009978;28;20426;-70
2022/10/02 06:05:49;;;;;;;1.30;1.10;;;18.60;45.00;;;;;;5011699;28;20507;-70
2022/10/02 06:08:19;;;;;;;1.30;1.10;;;18.40;45.90;;;;;;5011463;28;20469;-69
2022/10/02 06:10:49;;;;;;;1.30;1.10;;;18.30;46.80;;;;;;5011076;28;20547;-70
2022/10/02 06:13:26;;;;;;;1.30;1.10;;;18.40;46.00;;;;;;5011712;28;20408;-71
2022/10/02 06:16:04;;;;;;;1.30;1.10;;;18.30;46.90;;;;;;5011566;28;20416;-69
2022/10/02 06:18:32;;;;;;;1.30;1.10;;;18.30;48.10;;;;;;5011460;28;20967;-70
2022/10/02 06:21:18;;;;;;;1.30;1.20;;;18.30;46.80;;;;;;5010997;28;20499;-69
2022/10/02 06:23:50;;;;;;;1.30;1.10;;;18.30;46.80;;;;;;5011138;28;20427;-70
2022/10/02 06:26:33;;;;;;;1.30;1.10;;;18.30;47.80;;;;;;5011506;28;20417;-69
2022/10/02 06:29:04;;;;;;;1.30;1.10;;;18.40;46.90;;;;;;5011452;28;20398;-69
2022/10/02 06:31:47;;;;;;;1.27;1.00;;;18.30;47.80;;;;;;5011217;28;20923;-69
2022/10/02 06:34:13;;;;;;;1.30;1.20;;;18.30;48.50;;;;;;5011281;28;20938;-69
2022/10/02 06:37:21;;;;;;;1.30;1.10;;;18.30;48.70;;;;;;5011055;28;20440;-70
2022/10/02 06:40:02;;;;;;;1.30;1.20;;;18.40;48.90;;;;;;5001798;28;20597;-70
2022/10/02 06:42:48;;;;;;;1.30;1.00;;;18.40;48.10;;;;;;5013969;28;20406;-70
2022/10/02 06:45:30;;;;;;;1.30;1.20;;;18.60;47.40;;;;;;5014771;28;20785;-70
2022/10/02 06:48:13;;;;;;;1.30;1.17;;;18.50;48.20;;;;;;5014892;28;20475;-72
2022/10/02 06:50:51;;;;;;;1.30;1.20;;;18.50;48.20;;;;;;5014062;28;20404;-70
2022/10/02 06:53:23;;;;;;;1.30;1.10;;;18.60;47.90;;;;;;5014544;28;20415;-71
2022/10/02 06:56:00;;;;;;;1.30;1.30;;;18.60;48.10;;;;;;5014881;28;20486;-70
2022/10/02 06:58:37;;;;;;;1.30;1.10;;;18.60;47.50;;;;;;5014747;28;20485;-70
2022/10/02 07:01:32;;;;;;;1.30;1.17;;;18.70;47.70;;;;;;5014567;28;20443;-70
2022/10/02 07:04:26;;;;;;;1.30;1.20;;;18.80;47.40;;;;;;4972666;28;20433;-70
2022/10/02 07:07:29;;;;;;;1.30;1.20;;;18.90;45.20;;;;;;4973277;28;20481;-71
2022/10/02 07:10:18;;;;;;;1.30;1.20;;;19.00;46.50;;;;;;4973296;28;20444;-70
2022/10/02 07:12:59;;;;;;;1.30;1.10;;;19.00;46.40;;;;;;4972588;28;20414;-71
2022/10/02 07:16:07;;;;;;;1.40;1.30;;;19.10;46.80;;;;;;4973070;28;20429;-70
2022/10/02 07:18:59;;;;;;;1.30;1.17;;;19.10;45.70;;;;;;4972863;28;20469;-70
2022/10/02 07:21:40;;;;;;;1.30;1.10;;;19.20;45.00;;;;;;4972731;28;20465;-70
2022/10/02 07:24:12;;;;;;;1.30;1.10;;;19.20;46.10;;;;;;4972525;28;20976;-70
2022/10/02 07:27:01;;;;;;;1.30;1.10;;;19.30;44.00;;;;;;4972909;28;20862;-70
2022/10/02 07:29:35;;;;;;;1.30;1.20;;;19.20;43.10;;;;;;4925574;28;20426;-69
2022/10/02 07:32:10;;;;;;;1.30;1.17;;;19.30;42.70;;;;;;4972323;28;20874;-70
2022/10/02 07:34:41;;;;;;;1.27;1.10;;;19.30;42.70;;;;;;4972635;28;21070;-71
2022/10/02 07:37:37;;;;;;;1.30;1.10;;;19.40;42.90;;;;;;5002035;22;20535;-76
2022/10/02 07:40:11;;;;;;;1.30;1.17;;;19.50;42.10;;;;;;4992809;28;20509;-76
2022/10/02 07:43:14;;;;;;;1.30;1.10;;;19.50;41.80;;;;;;4993835;28;20436;-74
2022/10/02 07:45:44;;;;;;;1.30;1.10;;;19.80;42.10;;;;;;4994321;28;20404;-74
2022/10/02 07:48:40;;;;;;;1.30;1.17;;;19.80;42.30;;;;;;4993910;28;20800;-74
2022/10/02 07:54:11;;;;;;;1.30;1.13;;;20.10;42.10;;;;;;4993923;28;20491;-74
2022/10/02 07:56:37;;;;;;;1.30;1.20;;;20.00;38.90;;;;;;4994321;28;20939;-74
2022/10/02 07:59:09;;;;;;;1.30;1.10;;;20.10;39.20;;;;;;4993905;28;20816;-74
2022/10/02 08:01:38;;;;;;;1.30;1.03;;;19.90;38.80;;;;;;4993598;28;20429;-74
2022/10/02 08:04:10;;;;;;;1.30;1.10;;;19.70;41.40;;;;;;4993724;28;20458;-74
2022/10/02 08:06:37;;;;;;;1.30;1.10;;;20.00;40.00;;;;;;4994021;28;20914;-73
2022/10/02 08:09:14;;;;;;;1.30;1.10;;;20.00;39.70;;;;;;4993615;28;20960;-73
2022/10/02 08:11:50;;;;;;;1.30;1.10;;;18.80;44.20;;;;;;4993285;28;20894;-73
2022/10/02 08:14:30;;;;;;;1.30;1.20;;;18.90;43.80;;;;;;4993637;28;20511;-74
2022/10/02 08:17:28;;;;;;;1.30;1.10;;;19.00;44.10;;;;;;4993755;28;20454;-73
2022/10/02 08:20:01;;;;;;;1.30;1.00;;;19.00;44.90;;;;;;4992812;28;20475;-73
2022/10/02 08:22:39;;;;;;;1.30;1.10;;;18.80;46.00;;;;;;4993043;28;20909;-73
2022/10/02 08:25:43;;;;;;;1.30;1.10;;;19.00;44.90;;;;;;4993553;28;20430;-73
2022/10/02 08:28:29;;;;;;;1.30;1.10;;;19.50;44.30;;;;;;4993840;28;20554;-73
2022/10/02 08:30:56;;;;;;;1.30;1.10;;;19.70;43.30;;;;;;4993081;28;20408;-73
2022/10/02 08:33:23;;;;;;;1.30;1.20;;;19.60;43.50;;;;;;4992989;28;20426;-73
2022/10/02 08:36:29;;;;;;;1.30;1.00;;;19.80;43.40;;;;;;4993306;28;20409;-73
2022/10/02 08:39:12;;;;;;;1.30;1.13;;;19.80;43.50;;;;;;4990767;28;20983;-73
2022/10/02 08:41:56;;;;;;;1.30;1.13;;;19.90;43.60;;;;;;4990636;28;20652;-73
2022/10/02 08:44:43;;;;;;;1.30;1.10;;;19.80;43.70;;;;;;4990575;28;20874;-73
2022/10/02 08:47:47;;;;;;;1.30;1.20;;;19.70;43.80;;;;;;4990733;28;20535;-73
2022/10/02 08:50:21;;;;;;;1.30;1.20;;;19.90;43.40;;;;;;4990902;28;20398;-73
2022/10/02 08:53:38;;;;;;;1.30;1.07;;;20.00;42.70;;;;;;4990074;28;20435;-73
2022/10/02 08:56:29;;;;;;;1.30;1.17;;;20.00;42.80;;;;;;4990727;28;20405;-73
2022/10/02 08:59:22;;;;;;;1.30;1.10;;;19.60;45.20;;;;;;4990457;28;20983;-73
2022/10/02 09:02:00;;;;;;;1.30;1.13;;;20.00;44.50;;;;;;4989988;28;20873;-74
2022/10/02 09:04:53;;;;;;;1.30;1.10;;;20.40;42.80;;;;;;4990004;28;20890;-74
2022/10/02 09:07:55;;;;;;;1.30;1.20;;;20.40;43.40;;;;;;4990534;28;20525;-74
2022/10/02 09:10:57;;;;;;;1.30;1.10;;;20.60;42.80;;;;;;4990524;28;20449;-73
2022/10/02 09:13:39;;;;;;;1.30;1.10;;;20.50;42.60;;;;;;4990175;28;20821;-74
2022/10/02 09:16:16;;;;;;;1.30;1.10;;;20.70;41.90;;;;;;4992558;28;20399;-73
2022/10/02 09:18:50;;;;;;;1.30;1.10;;;20.80;42.40;;;;;;4992442;28;20539;-73
2022/10/02 09:21:36;;;;;;;1.30;1.10;;;20.90;42.50;;;;;;4992313;28;20907;-73
2022/10/02 09:24:43;;;;;;;1.30;1.10;;;20.80;42.40;;;;;;4992236;28;20484;-73
2022/10/02 09:27:33;;;;;;;1.30;1.10;;;20.20;44.80;;;;;;4992572;28;20425;-73
2022/10/02 09:30:10;;;;;;;1.30;1.20;;;20.70;43.90;;;;;;4992444;28;20511;-74
2022/10/02 09:33:30;;;;;;;1.30;1.10;;;17.90;40.30;;;;;;4992013;28;20412;-73
2022/10/02 09:36:29;;;;;;;1.30;1.20;;;20.20;44.40;;;;;;4989796;28;20405;-73
2022/10/02 09:39:16;;;;;;;1.30;1.10;;;20.00;45.50;;;;;;4992203;28;20469;-73
2022/10/02 09:41:46;;;;;;;1.30;1.20;;;20.30;45.40;;;;;;4992207;28;20629;-73
2022/10/02 09:44:57;;;;;;;1.30;1.10;;;20.70;43.80;;;;;;4991963;28;20430;-73
2022/10/02 09:47:43;;;;;;;1.30;1.20;;;20.40;45.10;;;;;;4991128;28;20773;-74
2022/10/02 09:50:12;;;;;;;1.30;1.20;;;21.20;42.80;;;;;;4972794;28;20428;-74
2022/10/02 09:53:07;;;;;;;1.30;1.10;;;21.70;42.10;;;;;;4972345;28;20821;-74
2022/10/02 09:55:59;;;;;;;1.30;1.10;;;21.70;40.60;;;;;;4972672;28;20890;-74
2022/10/02 09:58:50;;;;;;;1.30;1.13;;;21.70;41.60;;;;;;4970465;28;21043;-74
2022/10/02 10:01:34;;;;;;;1.30;1.20;;;21.30;41.50;;;;;;4972454;28;20410;-74
2022/10/02 10:04:37;;;;;;;1.30;1.10;;;21.20;41.50;;;;;;4971859;28;20793;-74
2022/10/02 10:07:17;;;;;;;1.30;1.10;;;21.20;42.80;;;;;;4972636;28;20443;-74
2022/10/02 10:10:01;;;;;;;1.30;1.20;;;21.80;39.70;;;;;;4972523;28;20401;-74
2022/10/02 10:12:54;;;;;;;1.30;1.10;;;21.60;39.90;;;;;;4971799;28;20414;-73
2022/10/02 10:15:28;;;;;;;1.30;1.10;;;21.50;40.60;;;;;;4972692;28;20402;-74
2022/10/02 10:18:16;;;;;;;1.30;1.10;;;21.70;40.30;;;;;;4976346;28;20533;-73
2022/10/02 10:21:09;;;;;;;1.30;1.20;;;21.60;40.10;;;;;;4976549;28;20402;-73
2022/10/02 10:23:53;;;;;;;1.30;1.10;;;21.20;41.40;;;;;;4975977;28;20520;-73
2022/10/02 10:26:32;;;;;;;1.30;1.10;;;21.10;42.70;;;;;;4976343;28;20403;-73
2022/10/02 10:29:20;;;;;;;2.00;1.10;;;20.90;41.80;;;;;;4976240;28;20402;-73
2022/10/02 10:32:06;;;;;;;1.30;1.10;;;20.80;42.40;;;;;;4975914;28;20484;-74
2022/10/02 10:34:48;;;;;;;1.30;1.20;;;21.60;40.50;;;;;;4975821;28;20401;-73
2022/10/02 10:40:51;;;;;;;1.30;1.10;;;21.80;38.20;;;;;;4976413;28;20404;-73
2022/10/02 10:43:54;;;;;;;1.30;1.10;;;22.30;37.00;;;;;;4975841;28;20400;-73
2022/10/02 10:46:30;;;;;;;1.30;1.20;;;21.50;37.10;;;;;;4975976;28;20941;-73
2022/10/02 10:49:08;;;;;;;1.30;1.20;;;21.30;38.50;;;;;;4976123;28;20403;-73
2022/10/02 10:51:59;;;;;;;1.30;1.10;;;20.80;39.50;;;;;;4975596;28;20512;-73
2022/10/02 10:54:33;;;;;;;1.30;1.10;;;20.60;39.70;;;;;;4975654;28;20406;-73
2022/10/02 10:57:11;;;;;;;1.30;1.20;;;20.70;39.30;;;;;;4975834;28;20425;-73
2022/10/02 11:00:01;;;;;;;1.30;1.10;;;20.80;39.50;;;;;;4975764;28;20436;-74
2022/10/02 11:03:01;;;;;;;1.30;1.10;;;21.00;38.70;;;;;;4975350;28;20925;-73
2022/10/02 11:05:35;;;;;;;1.30;1.20;;;21.00;39.40;;;;;;4975249;28;20408;-73
2022/10/02 11:08:57;;;;;;;1.30;1.00;;;21.20;38.70;;;;;;4975670;28;20848;-73
2022/10/02 11:11:54;;;;;;;1.30;1.10;;;21.30;37.40;;;;;;4934617;29;20415;-73
2022/10/02 11:14:54;;;;;;;1.30;1.20;;;21.00;39.20;;;;;;4956856;28;20956;-73
2022/10/02 11:17:52;;;;;;;1.30;1.10;;;21.00;39.30;;;;;;4975585;28;20457;-74
2022/10/02 11:20:29;;;;;;;1.30;1.10;;;21.60;38.20;;;;;;4975612;28;20455;-73
2022/10/02 11:23:48;;;;;;;1.30;1.10;;;21.60;37.70;;;;;;4975597;28;20392;-74
2022/10/02 11:26:31;;;;;;;1.30;1.10;;;22.10;36.60;;;;;;4935125;29;20417;-73
2022/10/02 11:29:16;;;;;;;1.30;1.20;;;22.60;35.30;;;;;;4975412;28;20413;-73
2022/10/02 11:32:13;;;;;;;1.30;1.10;;;22.70;34.50;;;;;;4974765;28;20410;-73
2022/10/02 11:34:41;;;;;;;1.30;1.10;;;22.60;35.10;;;;;;4989701;28;20956;-73
2022/10/02 11:37:58;;;;;;;1.30;1.10;;;22.20;36.00;;;;;;4974704;28;20850;-73
2022/10/02 11:40:35;;;;;;;1.30;1.10;;;22.00;36.10;;;;;;4993548;28;20971;-74
2022/10/02 11:43:16;;;;;;;1.30;1.10;;;21.60;37.50;;;;;;4990923;28;20789;-73
2022/10/02 11:46:11;;;;;;;1.30;1.10;;;21.30;38.10;;;;;;4994099;28;20410;-73
2022/10/02 11:48:55;;;;;;;1.30;1.10;;;21.20;38.70;;;;;;4993733;28;20521;-73
2022/10/02 11:51:39;;;;;;;1.30;1.10;;;21.00;39.50;;;;;;4993817;28;20439;-73
2022/10/02 11:54:27;;;;;;;1.30;1.10;;;21.00;38.80;;;;;;4994047;28;20407;-73
2022/10/02 11:57:05;;;;;;;1.30;1.10;;;21.20;39.50;;;;;;4994012;28;20483;-74
2022/10/02 11:59:39;;;;;;;1.30;1.10;;;21.80;37.90;;;;;;4994000;28;20468;-74
2022/10/02 12:02:27;;;;;;;1.30;1.17;;;22.10;37.20;;;;;;4993702;28;20499;-74
2022/10/02 12:04:56;;;;;;;1.30;1.10;;;21.90;36.80;;;;;;4993810;28;20400;-73
2022/10/02 12:07:37;;;;;;;1.30;1.00;;;21.70;38.00;;;;;;4993842;28;20479;-73
2022/10/02 12:10:29;;;;;;;1.30;1.20;;;21.10;38.70;;;;;;4993800;28;20955;-73
2022/10/02 12:13:19;;;;;;;1.30;1.17;;;21.30;38.80;;;;;;4993417;28;20425;-73
2022/10/02 12:15:56;;;;;;;1.30;1.10;;;21.30;38.80;;;;;;4993705;28;20396;-74
2022/10/02 12:18:22;;;;;;;1.30;1.10;;;21.30;39.40;;;;;;4993739;28;20461;-73
2022/10/02 12:27:30;;;;;;;1.30;1.17;;;20.90;48.30;;;;;;4993659;28;20456;-74
2022/10/02 12:30:06;;;;;;;1.30;1.20;;;20.60;49.20;;;;;;4993508;28;20503;-74
2022/10/02 12:33:00;;;;;;;1.30;1.10;;;20.60;50.40;;;;;;4993190;28;20397;-74
2022/10/02 12:35:50;;;;;;;1.30;1.20;;;20.80;48.80;;;;;;4993334;28;20472;-74
2022/10/02 12:38:21;;;;;;;1.30;1.17;;;20.80;50.60;;;;;;4992659;28;20569;-74
2022/10/02 12:41:21;;;;;;;1.30;1.20;;;20.70;53.20;;;;;;4992804;28;20427;-74
2022/10/02 12:43:58;;;;;;;1.30;1.20;;;20.80;53.20;;;;;;4992690;28;20420;-74
2022/10/02 12:46:47;;;;;;;1.30;1.10;;;20.50;55.30;;;;;;4993238;28;20420;-74
2022/10/02 12:49:35;;;;;;;1.30;1.20;;;20.50;56.70;;;;;;5008388;28;20413;-74
2022/10/02 12:52:54;;;;;;;1.40;1.20;;;20.80;58.60;;;;;;4992749;28;20487;-74
2022/10/02 12:55:39;;;;;;;1.40;1.10;;;20.90;50.50;;;;;;4990615;28;20413;-74
2022/10/02 12:58:34;;;;;;;1.40;1.13;;;20.60;50.20;;;;;;4992840;28;20432;-74
2022/10/02 13:01:39;;;;;;;1.50;1.20;;;19.80;54.90;;;;;;5007825;28;20411;-74
2022/10/02 13:04:19;;;;;;;1.40;1.10;;;20.00;53.90;;;;;;4992312;28;20784;-74
2022/10/02 13:06:55;;;;;;;1.43;1.20;;;19.80;54.50;;;;;;4992835;28;20442;-74
2022/10/02 13:09:42;;;;;;;1.50;1.20;;;19.60;54.50;;;;;;5007793;28;20417;-74
2022/10/02 13:12:31;;;;;;;1.50;1.20;;;19.70;53.40;;;;;;4992432;28;20419;-74
2022/10/02 13:15:33;;;;;;;1.50;1.20;;;19.70;52.60;;;;;;4992619;28;20413;-74
2022/10/02 13:18:42;;;;;;;1.50;1.10;;;19.50;54.50;;;;;;4992578;28;20436;-74
2022/10/02 13:21:22;;;;;;;1.40;1.10;;;19.50;54.40;;;;;;4992347;28;20434;-74
2022/10/02 13:24:04;;;;;;;1.40;1.10;;;19.40;54.90;;;;;;4992281;28;20408;-74
2022/10/02 13:26:51;;;;;;;1.50;1.20;;;19.40;54.20;;;;;;4992708;28;20420;-74
2022/10/02 13:29:29;;;;;;;1.50;1.20;;;19.30;54.60;;;;;;4992644;28;20418;-74
2022/10/02 13:32:23;;;;;;;1.40;1.20;;;19.40;55.70;;;;;;4992130;28;20418;-74
2022/10/02 13:35:03;;;;;;;1.50;1.10;;;19.50;55.50;;;;;;4992445;28;20442;-74
2022/10/02 13:37:50;;;;;;;1.50;1.20;;;19.50;54.50;;;;;;5007528;28;20458;-74
2022/10/02 13:40:20;;;;;;;1.40;1.10;;;19.30;53.80;;;;;;4992253;28;20409;-74
2022/10/02 13:43:04;;;;;;;1.47;1.20;;;19.30;54.40;;;;;;4991772;28;20416;-74
2022/10/02 13:45:40;;;;;;;1.40;1.10;;;19.20;54.90;;;;;;4992224;28;20441;-74
2022/10/02 13:48:31;;;;;;;1.30;1.03;;;19.00;56.80;;;;;;4992340;28;20972;-74
2022/10/02 13:51:09;;;;;;;1.50;1.20;;;19.00;55.60;;;;;;4991497;28;20422;-74
2022/10/02 13:53:55;;;;;;;1.40;1.10;;;18.90;55.90;;;;;;4992174;28;20401;-74
2022/10/02 13:56:27;;;;;;;1.40;1.20;;;18.80;57.10;;;;;;4992182;28;20749;-74
2022/10/02 13:59:14;;;;;;;1.40;1.10;;;18.90;56.90;;;;;;4991847;28;20588;-74
2022/10/02 14:01:58;;;;;;;1.37;1.10;;;19.00;56.40;;;;;;4991595;28;20416;-74
2022/10/02 14:04:36;;;;;;;1.50;1.30;;;19.10;55.10;;;;;;4992041;28;20475;-74
2022/10/02 14:07:20;;;;;;;1.40;1.20;;;19.00;54.60;;;;;;4991998;28;20440;-75
2022/10/02 14:09:52;;;;;;;1.30;1.10;;;18.60;58.00;;;;;;4991976;28;21002;-75
2022/10/02 14:12:39;;;;;;;1.30;1.20;;;18.70;56.70;;;;;;5006528;28;20429;-76
2022/10/02 14:15:31;;;;;;;1.30;1.10;;;18.80;56.80;;;;;;5006831;28;20422;-76
2022/10/02 14:18:37;;;;;;;1.30;1.10;;;18.60;56.60;;;;;;4990716;28;20445;-75